createdAt,value
2023-04-11T00:01:46.525Z,96.37
2023-04-11T00:06:46.526Z,96.37
2023-04-11T00:11:46.592Z,96.36
2023-04-11T00:16:46.529Z,96.36
2023-04-11T00:21:46.521Z,96.34
2023-04-11T00:26:46.533Z,96.32
2023-04-11T00:31:46.524Z,96.31
2023-04-11T00:36:46.536Z,96.3
2023-04-11T00:41:46.537Z,96.28
2023-04-11T00:46:46.528Z,96.27
2023-04-11T00:52:03.017Z,96.26
2023-04-11T00:56:46.531Z,96.27
2023-04-11T01:01:46.544Z,96.27
2023-04-11T01:06:46.545Z,96.28
2023-04-11T01:11:46.547Z,96.27
2023-04-11T01:16:46.549Z,96.27
2023-04-11T01:21:46.539Z,96.25
2023-04-11T01:26:46.552Z,96.26
2023-04-11T01:31:46.542Z,96.26
2023-04-11T01:36:46.555Z,96.26
2023-04-11T01:41:46.555Z,96.27
2023-04-11T01:46:46.546Z,96.28
2023-04-11T01:51:46.559Z,96.28
2023-04-11T01:56:46.550Z,96.26
2023-04-11T02:01:46.563Z,96.25
2023-04-11T02:06:46.553Z,96.25
2023-04-11T02:11:46.566Z,96.25
2023-04-11T02:16:46.567Z,96.26
2023-04-11T02:21:46.558Z,96.26
2023-04-11T02:26:46.569Z,96.26
2023-04-11T02:31:46.561Z,96.25
2023-04-11T02:36:46.573Z,96.24
2023-04-11T02:41:46.574Z,96.24
2023-04-11T02:46:46.576Z,96.25
2023-04-11T02:51:46.578Z,96.25
2023-04-11T02:56:46.568Z,96.24
2023-04-11T03:01:46.580Z,96.25
2023-04-11T03:06:46.571Z,96.27
2023-04-11T03:11:46.583Z,96.26
2023-04-11T03:16:46.584Z,96.27
2023-04-11T03:21:46.575Z,96.27
2023-04-11T03:26:46.587Z,96.28
2023-04-11T03:36:46.590Z,96.3
2023-04-11T03:41:46.581Z,96.29
2023-04-11T03:46:46.592Z,96.31
2023-04-11T03:51:46.593Z,96.32
2023-04-11T03:56:46.585Z,96.31
2023-04-11T04:01:46.598Z,96.32
2023-04-11T04:06:46.587Z,96.32
2023-04-11T04:11:46.599Z,96.32
2023-04-11T04:16:46.601Z,96.31
2023-04-11T04:21:46.601Z,96.3
2023-04-11T04:26:46.604Z,96.29
2023-04-11T04:31:46.593Z,96.27
2023-04-11T04:36:46.605Z,96.26
2023-04-11T04:41:46.596Z,96.28
2023-04-11T04:46:46.608Z,96.3
2023-04-11T04:51:46.609Z,96.3
2023-04-11T04:56:46.634Z,96.3
2023-04-11T05:01:46.611Z,96.31
2023-04-11T05:06:46.602Z,96.32
2023-04-11T05:11:46.614Z,96.33
2023-04-11T05:21:46.616Z,96.34
2023-04-11T05:26:46.617Z,96.35
2023-04-11T05:31:46.609Z,96.34
2023-04-11T05:36:46.622Z,96.36
2023-04-11T05:41:46.611Z,96.37
2023-04-11T05:46:46.623Z,96.39
2023-04-11T05:51:46.624Z,96.41
2023-04-11T05:56:46.625Z,96.42
2023-04-11T06:01:46.627Z,96.44
2023-04-11T06:06:46.617Z,96.44
2023-04-11T06:11:46.628Z,96.46
2023-04-11T06:16:46.620Z,96.45
2023-04-11T06:21:46.631Z,96.46
2023-04-11T06:26:46.632Z,96.47
2023-04-11T06:31:46.675Z,96.48
2023-04-11T06:36:46.636Z,96.45
2023-04-11T06:41:46.625Z,96.46
2023-04-11T06:46:46.636Z,96.46
2023-04-11T06:51:46.627Z,96.46
2023-04-11T06:56:46.638Z,96.47
2023-04-11T07:01:46.640Z,96.47
2023-04-11T07:06:46.631Z,96.46
2023-04-11T07:11:46.644Z,96.46
2023-04-11T07:16:46.633Z,96.47
2023-04-11T07:21:46.644Z,96.47
2023-04-11T07:26:46.646Z,96.48
2023-04-11T07:31:46.646Z,96.48
2023-04-11T07:36:46.649Z,96.49
2023-04-11T07:41:46.639Z,96.49
2023-04-11T07:46:46.650Z,96.5
2023-04-11T07:51:46.640Z,96.5
2023-04-11T07:56:46.652Z,96.48
2023-04-11T08:01:46.654Z,96.48
2023-04-11T08:06:46.681Z,96.49
2023-04-11T08:11:46.656Z,96.49
2023-04-11T08:16:46.648Z,96.47
2023-04-11T08:21:46.659Z,96.48
2023-04-11T08:26:46.650Z,96.48
2023-04-11T08:31:46.662Z,96.46
2023-04-11T08:36:46.663Z,96.47
2023-04-11T08:41:46.655Z,96.46
2023-04-11T08:46:46.668Z,96.45
2023-04-11T08:51:46.658Z,96.44
2023-04-11T08:56:46.670Z,96.47
2023-04-11T09:01:46.671Z,96.5
2023-04-11T09:06:46.673Z,96.51
2023-04-11T09:12:03.153Z,96.5
2023-04-11T09:16:46.666Z,96.51
2023-04-11T09:21:46.679Z,96.51
2023-04-11T09:26:46.669Z,96.52
2023-04-11T09:31:46.681Z,96.53
2023-04-11T09:36:46.682Z,96.52
2023-04-11T09:41:46.673Z,96.52
2023-04-11T09:46:46.687Z,96.53
2023-04-11T09:51:46.676Z,96.49
2023-04-11T09:56:46.688Z,96.48
2023-04-11T10:01:46.680Z,96.45
2023-04-11T10:06:46.692Z,96.49
2023-04-11T10:11:46.693Z,96.47
2023-04-11T10:16:46.685Z,96.5
2023-04-11T10:21:46.699Z,96.48
2023-04-11T10:26:46.689Z,96.48
2023-04-11T10:31:46.701Z,96.49
2023-04-11T10:36:46.703Z,96.52
2023-04-11T10:41:46.705Z,96.5
2023-04-11T10:46:46.708Z,96.5
2023-04-11T10:51:46.699Z,96.49
2023-04-11T10:56:46.712Z,96.54
2023-04-11T11:01:46.703Z,96.56
2023-04-11T11:11:46.717Z,96.54
2023-04-11T11:16:46.708Z,96.52
2023-04-11T11:21:46.722Z,96.51
2023-04-11T11:26:46.712Z,96.5
2023-04-11T11:31:46.724Z,96.5
2023-04-11T11:42:03.207Z,96.51
2023-04-11T11:47:03.210Z,96.51
2023-04-11T11:52:03.201Z,96.52
2023-04-11T11:57:03.212Z,96.52
2023-04-11T12:02:03.215Z,96.51
2023-04-11T12:07:03.217Z,96.49
2023-04-11T12:11:46.744Z,96.49
2023-04-11T12:16:46.734Z,96.48
2023-04-11T12:21:46.748Z,96.51
2023-04-11T12:26:46.739Z,96.5
2023-04-11T12:31:46.752Z,96.51
2023-04-11T12:36:46.754Z,96.52
2023-04-11T12:41:46.746Z,96.52
2023-04-11T12:51:46.751Z,96.54
2023-04-11T12:57:03.240Z,96.54
2023-04-11T13:02:03.243Z,96.54
2023-04-11T13:07:03.244Z,96.51
2023-04-11T13:12:03.248Z,96.52
2023-04-11T13:17:03.239Z,96.53
2023-04-11T13:21:46.773Z,96.58
2023-04-11T13:26:46.775Z,96.62
2023-04-11T13:31:46.776Z,96.62
2023-04-11T13:36:46.780Z,96.62
2023-04-11T13:41:46.769Z,96.6
2023-04-11T13:46:46.781Z,96.55
2023-04-11T13:51:46.772Z,96.54
2023-04-11T13:56:46.785Z,96.52
2023-04-11T14:01:46.788Z,96.53
2023-04-11T14:06:46.780Z,96.54
2023-04-11T14:11:46.794Z,96.55
2023-04-11T14:16:46.784Z,96.54
2023-04-11T14:21:46.796Z,96.55
2023-04-11T14:26:46.798Z,96.58
2023-04-11T14:31:46.800Z,96.55
2023-04-11T14:36:46.851Z,96.54
2023-04-11T14:41:46.794Z,96.56
2023-04-11T14:46:46.808Z,96.57
2023-04-11T14:51:46.797Z,96.57
2023-04-11T14:56:46.809Z,96.59
2023-04-11T15:01:46.811Z,96.57
2023-04-11T15:06:46.812Z,96.56
2023-04-11T15:11:46.816Z,96.55
2023-04-11T15:16:46.806Z,96.54
2023-04-11T15:21:46.817Z,96.55
2023-04-11T15:26:46.809Z,96.55
2023-04-11T15:31:46.821Z,96.57
2023-04-11T15:36:46.822Z,96.56
2023-04-11T15:41:46.814Z,96.56
2023-04-11T15:46:46.828Z,96.56
2023-04-11T15:51:46.817Z,96.56
2023-04-11T15:56:46.829Z,96.55
2023-04-11T16:01:46.820Z,96.54
2023-04-11T16:06:46.833Z,96.54
2023-04-11T16:11:46.834Z,96.54
2023-04-11T16:16:46.825Z,96.53
2023-04-11T16:21:46.839Z,96.53
2023-04-11T16:26:46.828Z,96.53
2023-04-11T16:31:46.840Z,96.54
2023-04-11T16:36:46.842Z,96.54
2023-04-11T16:41:46.843Z,96.54
2023-04-11T16:46:46.847Z,96.54
2023-04-11T16:51:46.836Z,96.54
2023-04-11T16:56:46.848Z,96.54
2023-04-11T17:01:46.839Z,96.54
2023-04-11T17:06:46.851Z,96.54
2023-04-11T17:11:46.853Z,96.54
2023-04-11T17:16:46.844Z,96.54
2023-04-11T17:22:03.334Z,96.54
2023-04-11T17:26:46.847Z,96.53
2023-04-11T17:31:46.859Z,96.53
2023-04-11T17:36:46.860Z,96.53
2023-04-11T17:41:46.861Z,96.54
2023-04-11T17:46:46.887Z,96.54
2023-04-11T17:51:46.854Z,96.55
2023-04-11T17:56:46.870Z,96.56
2023-04-11T18:06:46.869Z,96.56
2023-04-11T18:11:46.871Z,96.56
2023-04-11T18:16:46.872Z,96.56
2023-04-11T18:21:46.874Z,96.56
2023-04-11T18:26:46.864Z,96.57
2023-04-11T18:31:46.876Z,96.57
2023-04-11T18:36:46.866Z,96.57
2023-04-11T18:41:46.879Z,96.58
2023-04-11T18:51:46.870Z,96.59
2023-04-11T18:56:46.883Z,96.58
2023-04-11T19:01:46.872Z,96.58
2023-04-11T19:06:46.885Z,96.59
2023-04-11T19:11:46.885Z,96.59
2023-04-11T19:16:46.887Z,96.6
2023-04-11T19:21:46.887Z,96.59
2023-04-11T19:26:46.879Z,96.58
2023-04-11T19:31:46.934Z,96.59
2023-04-11T19:36:46.881Z,96.58
2023-04-11T19:41:46.893Z,96.58
2023-04-11T19:46:46.893Z,96.57
2023-04-11T19:51:46.895Z,96.57
2023-04-11T19:56:46.897Z,96.56
2023-04-11T20:01:46.886Z,96.56
2023-04-11T20:06:46.898Z,96.55
2023-04-11T20:11:46.888Z,96.55
2023-04-11T20:16:46.900Z,96.55
2023-04-11T20:21:46.901Z,96.55
2023-04-11T20:26:46.891Z,96.55
2023-04-11T20:31:46.902Z,96.55
2023-04-11T20:36:46.893Z,96.54
2023-04-11T20:41:46.905Z,96.53
2023-04-11T20:46:46.905Z,96.53
2023-04-11T20:51:46.907Z,96.53
2023-04-11T20:56:46.931Z,96.52
2023-04-11T21:01:46.898Z,96.53
2023-04-11T21:06:46.913Z,96.51
2023-04-11T21:11:46.900Z,96.51
2023-04-11T21:16:46.912Z,96.5
2023-04-11T21:21:46.913Z,96.5
2023-04-11T21:26:46.914Z,96.5
2023-04-11T21:31:46.914Z,96.49
2023-04-11T21:36:46.905Z,96.48
2023-04-11T21:41:46.917Z,96.48
2023-04-11T21:46:46.907Z,96.48
2023-04-11T21:51:46.919Z,96.48
2023-04-11T21:56:46.919Z,96.47
2023-04-11T22:01:46.910Z,96.46
2023-04-11T22:06:46.921Z,96.46
2023-04-11T22:11:46.912Z,96.45
2023-04-11T22:16:46.924Z,96.43
2023-04-11T22:21:46.924Z,96.42
2023-04-11T22:26:46.926Z,96.42
2023-04-11T22:31:46.925Z,96.41
2023-04-11T22:36:46.916Z,96.41
2023-04-11T22:41:46.971Z,96.39
2023-04-11T22:46:46.918Z,96.39
2023-04-11T22:51:46.930Z,96.37
2023-04-11T22:56:46.930Z,96.36
2023-04-11T23:01:46.932Z,96.35
2023-04-11T23:06:46.932Z,96.35
2023-04-11T23:11:46.923Z,96.34
2023-04-11T23:16:46.935Z,96.33
2023-04-11T23:21:46.925Z,96.34
2023-04-11T23:26:46.937Z,96.32
2023-04-11T23:31:46.937Z,96.32
2023-04-11T23:36:46.927Z,96.31
2023-04-11T23:41:46.939Z,96.29
2023-04-11T23:46:46.930Z,96.28
2023-04-11T23:51:46.942Z,96.28
2023-04-11T23:56:46.942Z,96.28
